Detroit (DTW/KDTW)

Information

Location
Detroit, MI
Local Time
09:14 / 9:14 am
GMT Time
14:14 / 2:14 pm
Gates
Unassigned
No FAA reported delays
METAR KDTW 221405Z 00000KT 1/8SM R03R/1400V5500FT FG VV002 06/06 A2963 RMK AO2 SFC VIS 1/4 T00610056
TAF KDTW 221123Z 2212/2318 00000KT 0SM FG VV001 FM221400 00000KT 1/4SM FG VV002 FM221700 05005KT 3SM BR BKN005 FM222000 06007KT 5SM BR BKN009 OVC200 FM230400 03003KT 1SM BR BKN004 OVC100
  • No charts available